Terminal Aerodrome Forecast
Issued by NWS King Salmon, AK

Home | Current Version | Previous Version | Text Only | Print | Product List | Glossary On
Versions: 1 2 3 4 5 6 7 8 9 10 11 12 13 14 15 16 17 18 19 20 21 22 23 24 25 26 27 28 29 30 31 32 33 34 35 36 37 38 39 40 41 42 43 44 45 46 47 48 49 50
000
FTAK31 PANC 051749
TAFAKN
TAF
PAKN 051749Z 0518/0618 22004KT P6SM BKN008
      TEMPO 0518/0522 2SM BR BKN004
     FM060200 29005KT P6SM BKN015
     FM060600 32005KT P6SM SCT080
     FM061500 18004KT P6SM BKN008=

USA.gov is the U.S. government's official web portal to all federal, state and local government web resources and services.